CheckWX is a tool to help pilots better visualize weather data.  It is not intended as a substitute for an official pre-flight weather briefing.

23:17:46 UTC

PADU METAR
Unalaska Airport
Unalaska, Alaska, USA
Current

22 mins ago

PADU 052256Z 30009KT 10SM BKN050 03/M06 A3038 RMK AO2 SLP291 T00331061
Observed
Apr-5 @ 22:56 UTC
Wind
  • 300° at 9 KTS
Visibility
Flight Rules
VFR
Cloud Levels
  • Broken at 5,000' AGL
Temperature
C / 37°F
Dewpoint
-6°C / 21°F
Humidity
52%
Altimeter
30.38" Hg
Pressure
1028.82 hPa
Previous

1 hour ago

PADU 052156Z 32010KT 10SM BKN050 03/M07 A3038 RMK AO2 SLP291 T00331067
Observed
Apr-5 @ 21:56 UTC
Wind
  • 320° at 10 KTS
Visibility
Flight Rules
VFR
Cloud Levels
  • Broken at 5,000' AGL
Temperature
C / 37°F
Dewpoint
-7°C / 19°F
Humidity
48%
Altimeter
30.38" Hg
Pressure
1028.82 hPa
Previous

2 hours ago

PADU 052056Z 30012KT 10SM BKN045 BKN055 03/M06 A3038 RMK AO2 SLP293 60000 T00281056 53006
Observed
Apr-5 @ 20:56 UTC
Wind
  • 300° at 12 KTS
Visibility
Flight Rules
VFR
Cloud Levels
  • Broken at 4,500' AGL
  • Broken at 5,500' AGL
Temperature
C / 37°F
Dewpoint
-6°C / 21°F
Humidity
52%
Altimeter
30.38" Hg
Pressure
1028.82 hPa